createdAt,value
2022-12-27T00:06:57.455Z,100.00
2022-12-27T00:08:38.157Z,100.00
2022-12-27T00:11:59.839Z,100.00
2022-12-27T00:19:17.532Z,100.00
2022-12-27T00:22:44.589Z,100.00
2022-12-27T00:26:08.196Z,100.00
2022-12-27T00:29:22.663Z,100.00
2022-12-27T00:32:43.524Z,100.00
2022-12-27T00:35:55.530Z,100.00
2022-12-27T00:39:14.930Z,100.00
2022-12-27T00:42:27.467Z,100.00
2022-12-27T00:45:38.740Z,100.00
2022-12-27T00:49:03.828Z,100.00
2022-12-27T00:52:21.210Z,100.00
2022-12-27T00:55:48.336Z,100.00
2022-12-27T00:59:10.384Z,100.00
2022-12-27T01:02:25.257Z,100.00
2022-12-27T01:05:57.979Z,100.00
2022-12-27T01:09:26.744Z,100.00
2022-12-27T01:12:59.260Z,100.00
2022-12-27T01:16:22.239Z,100.00
2022-12-27T01:19:49.737Z,100.00
2022-12-27T01:23:13.425Z,100.00
2022-12-27T01:26:35.132Z,100.00
2022-12-27T01:29:49.633Z,100.00
2022-12-27T01:38:05.381Z,100.00
2022-12-27T01:45:34.343Z,100.00
2022-12-27T01:48:45.738Z,100.00
2022-12-27T01:52:01.832Z,100.00
2022-12-27T01:55:24.215Z,100.00
2022-12-27T01:58:53.287Z,100.00
2022-12-27T02:01:57.746Z,100.00
2022-12-27T02:05:19.409Z,100.00
2022-12-27T02:09:01.249Z,100.00
2022-12-27T02:12:40.229Z,100.00
2022-12-27T02:15:49.165Z,100.00
2022-12-27T02:19:18.776Z,100.00
2022-12-27T02:23:07.514Z,100.00
2022-12-27T02:26:40.165Z,100.00
2022-12-27T02:30:03.403Z,100.00
2022-12-27T02:37:28.180Z,100.00
2022-12-27T02:40:33.586Z,100.00
2022-12-27T02:48:00.168Z,100.00
2022-12-27T02:51:28.946Z,100.00
2022-12-27T02:55:27.075Z,100.00
2022-12-27T02:58:54.639Z,100.00
2022-12-27T03:02:29.375Z,100.00
2022-12-27T03:06:13.865Z,100.00
2022-12-27T03:09:44.516Z,100.00
2022-12-27T03:13:17.176Z,100.00
2022-12-27T03:16:50.181Z,100.00
2022-12-27T03:20:20.231Z,100.00
2022-12-27T03:24:15.346Z,100.00
2022-12-27T03:27:43.720Z,100.00
2022-12-27T03:31:06.187Z,100.00
2022-12-27T03:34:45.827Z,100.00
2022-12-27T03:38:20.139Z,100.00
2022-12-27T03:41:38.207Z,100.00
2022-12-27T03:44:47.266Z,100.00
2022-12-27T03:48:05.748Z,100.00
2022-12-27T03:51:17.177Z,100.00
2022-12-27T03:58:09.173Z,100.00
2022-12-27T04:01:25.328Z,100.00
2022-12-27T04:04:44.361Z,100.00
2022-12-27T04:08:04.161Z,100.00
2022-12-27T04:11:08.946Z,100.00
2022-12-27T04:14:46.410Z,100.00
2022-12-27T04:18:15.316Z,100.00
2022-12-27T04:21:33.229Z,100.00
2022-12-27T04:24:37.917Z,100.00
2022-12-27T04:27:52.189Z,100.00
2022-12-27T04:30:54.116Z,100.00
2022-12-27T04:38:20.953Z,100.00
2022-12-27T04:41:22.958Z,100.00
2022-12-27T04:48:15.822Z,100.00
2022-12-27T04:51:26.241Z,100.00
2022-12-27T04:55:00.227Z,100.00
2022-12-27T04:58:19.328Z,100.00
2022-12-27T05:01:28.755Z,100.00
2022-12-27T05:08:46.233Z,100.00
2022-12-27T05:11:56.768Z,100.00
2022-12-27T05:15:17.051Z,100.00
2022-12-27T05:18:33.568Z,100.00
2022-12-27T05:21:45.234Z,100.00
2022-12-27T05:25:01.203Z,100.00
2022-12-27T05:28:18.560Z,100.00
2022-12-27T05:31:35.283Z,100.00
2022-12-27T05:38:23.286Z,100.00
2022-12-27T05:41:25.269Z,100.00
2022-12-27T05:44:52.701Z,100.00
2022-12-27T05:47:58.763Z,100.00
2022-12-27T05:51:18.204Z,100.00
2022-12-27T05:57:52.290Z,100.00
2022-12-27T06:01:10.698Z,100.00
2022-12-27T06:04:21.604Z,100.00
2022-12-27T06:07:53.766Z,100.00
2022-12-27T06:11:24.185Z,100.00
2022-12-27T06:14:55.603Z,100.00
2022-12-27T06:18:16.225Z,100.00
2022-12-27T06:21:20.746Z,100.00
2022-12-27T06:28:07.448Z,100.00
2022-12-27T06:31:16.235Z,100.00
2022-12-27T06:38:00.299Z,100.00
2022-12-27T06:41:07.545Z,100.00
2022-12-27T06:48:14.294Z,99.35
2022-12-27T06:51:25.694Z,99.35
2022-12-27T06:58:24.197Z,99.36
2022-12-27T07:01:34.634Z,98.90
2022-12-27T07:04:55.515Z,98.40
2022-12-27T07:08:32.211Z,99.12
2022-12-27T07:11:40.958Z,95.33
2022-12-27T07:15:17.379Z,92.18
2022-12-27T07:18:33.708Z,90.98
2022-12-27T07:21:53.416Z,90.87
2022-12-27T07:25:06.329Z,91.27
2022-12-27T07:28:14.838Z,89.49
2022-12-27T07:31:37.350Z,86.69
2022-12-27T07:38:27.220Z,85.72
2022-12-27T07:41:50.781Z,84.43
2022-12-27T07:45:06.318Z,83.87
2022-12-27T07:48:24.291Z,82.22
2022-12-27T07:51:34.453Z,81.14
2022-12-27T07:55:09.859Z,80.78
2022-12-27T07:58:24.281Z,79.82
2022-12-27T08:01:28.295Z,78.98
2022-12-27T08:05:25.884Z,78.75
2022-12-27T08:08:49.293Z,77.83
2022-12-27T08:12:07.179Z,77.69
2022-12-27T08:15:22.359Z,76.91
2022-12-27T08:18:37.515Z,76.72
2022-12-27T08:25:48.817Z,78.86
2022-12-27T08:29:05.885Z,78.59
2022-12-27T08:32:18.195Z,79.60
2022-12-27T08:35:51.564Z,80.05
2022-12-27T08:39:17.379Z,80.12
2022-12-27T08:42:34.900Z,80.67
2022-12-27T08:45:52.335Z,81.07
2022-12-27T08:49:33.697Z,81.35
2022-12-27T08:52:36.073Z,80.01
2022-12-27T08:56:03.600Z,80.75
2022-12-27T08:59:51.743Z,80.01
2022-12-27T09:11:32.371Z,78.05
2022-12-27T09:26:47.568Z,75.26
2022-12-27T09:30:38.349Z,74.12
2022-12-27T09:38:44.482Z,71.97
2022-12-27T09:50:27.598Z,68.56
2022-12-27T09:57:59.757Z,65.74
2022-12-27T10:01:46.752Z,62.17
2022-12-27T10:09:42.139Z,62.85
2022-12-27T10:13:18.237Z,64.22
2022-12-27T10:17:21.808Z,65.11
2022-12-27T10:21:07.851Z,65.50
2022-12-27T10:25:18.396Z,66.54
2022-12-27T10:29:11.774Z,65.47
2022-12-27T10:33:16.956Z,64.83
2022-12-27T10:36:37.050Z,65.74
2022-12-27T10:47:58.379Z,59.01
2022-12-27T10:51:16.282Z,58.64
2022-12-27T11:02:33.334Z,58.61
2022-12-27T11:06:27.126Z,58.01
2022-12-27T11:09:54.376Z,58.28
2022-12-27T11:18:35.427Z,59.25
2022-12-27T11:42:49.931Z,64.76
2022-12-27T11:46:37.526Z,64.85
2022-12-27T11:50:08.546Z,65.35
2022-12-27T11:58:32.865Z,66.00
2022-12-27T12:02:18.481Z,65.57
2022-12-27T12:06:27.801Z,64.79
2022-12-27T12:10:17.379Z,63.96
2022-12-27T12:18:25.675Z,62.40
2022-12-27T13:19:45.853Z,59.99
2022-12-27T14:09:14.688Z,61.84
2022-12-27T14:48:05.799Z,63.96
2022-12-27T14:52:51.253Z,63.88
2022-12-27T15:01:09.516Z,64.36
2022-12-27T15:09:22.854Z,64.85
2022-12-27T15:21:21.359Z,64.92
2022-12-27T15:29:27.346Z,64.53
2022-12-27T15:33:00.326Z,66.22
2022-12-27T15:36:23.360Z,65.50
2022-12-27T15:39:54.364Z,65.82
2022-12-27T15:47:56.473Z,67.67
2022-12-27T15:51:42.407Z,64.64
2022-12-27T15:55:29.775Z,65.47
2022-12-27T15:59:22.421Z,64.67
2022-12-27T16:02:55.807Z,65.07
2022-12-27T16:06:12.615Z,64.27
2022-12-27T16:09:47.400Z,64.39
2022-12-27T16:21:51.843Z,64.31
2022-12-27T16:25:45.567Z,64.66
2022-12-27T16:29:28.685Z,64.37
2022-12-27T16:33:00.036Z,64.29
2022-12-27T16:37:13.453Z,64.89
2022-12-27T16:40:51.504Z,65.04
2022-12-27T16:48:48.592Z,64.85
2022-12-27T16:52:59.316Z,64.38
2022-12-27T17:12:32.067Z,64.53
2022-12-27T17:16:35.931Z,64.05
2022-12-27T17:20:28.418Z,65.10
2022-12-27T17:27:28.913Z,65.13
2022-12-27T17:31:15.225Z,65.37
2022-12-27T17:35:08.313Z,65.65
2022-12-27T17:38:56.537Z,66.30
2022-12-27T17:42:20.753Z,66.02
2022-12-27T17:45:54.422Z,66.25
2022-12-27T17:49:07.917Z,66.32
2022-12-27T17:52:25.455Z,66.16
2022-12-27T17:55:28.892Z,66.21
2022-12-27T17:58:45.415Z,66.76
2022-12-27T18:02:19.496Z,67.36
2022-12-27T18:05:33.064Z,67.32
2022-12-27T18:08:45.288Z,67.09
2022-12-27T18:11:54.095Z,67.38
2022-12-27T18:15:27.383Z,66.91
2022-12-27T18:18:34.543Z,68.07
2022-12-27T18:22:35.415Z,68.47
2022-12-27T18:37:45.545Z,71.23
2022-12-27T19:21:22.662Z,74.32
2022-12-27T19:32:46.322Z,76.25
2022-12-27T19:36:02.388Z,75.91
2022-12-27T19:48:03.390Z,76.85
2022-12-27T19:51:13.385Z,77.07
2022-12-27T19:55:11.402Z,76.80
2022-12-27T19:58:23.789Z,76.87
2022-12-27T20:01:38.507Z,77.65
2022-12-27T20:05:06.577Z,78.91
2022-12-27T20:19:18.419Z,80.96
2022-12-27T20:22:38.857Z,81.09
2022-12-27T20:25:55.358Z,81.63
2022-12-27T20:29:16.190Z,81.89
2022-12-27T20:36:25.696Z,82.52
2022-12-27T20:39:44.543Z,82.95
2022-12-27T20:42:55.498Z,83.37
2022-12-27T20:46:10.583Z,83.72
2022-12-27T20:49:24.121Z,82.47
2022-12-27T20:52:38.399Z,81.85
2022-12-27T21:00:13.368Z,82.50
2022-12-27T21:07:31.500Z,83.25
2022-12-27T21:10:49.361Z,83.97
2022-12-27T21:21:52.351Z,85.16
2022-12-27T21:28:47.836Z,85.21
2022-12-27T21:32:03.805Z,85.56
2022-12-27T21:35:13.374Z,85.95
2022-12-27T21:38:28.421Z,86.37
2022-12-27T21:41:47.422Z,86.45
2022-12-27T21:45:08.734Z,86.10
2022-12-27T21:48:23.407Z,86.04
2022-12-27T21:51:44.110Z,86.12
2022-12-27T21:55:16.427Z,86.45
2022-12-27T21:58:44.241Z,86.38
2022-12-27T22:01:55.434Z,86.33
2022-12-27T22:05:12.831Z,86.11
2022-12-27T22:08:22.369Z,86.38
2022-12-27T22:11:40.746Z,86.49
2022-12-27T22:15:22.486Z,86.80
2022-12-27T22:19:18.494Z,86.47
2022-12-27T22:22:36.455Z,86.30
2022-12-27T22:25:53.406Z,86.36
2022-12-27T22:29:15.507Z,86.36
2022-12-27T22:32:17.448Z,86.46
2022-12-27T22:35:32.418Z,86.67
2022-12-27T22:38:37.675Z,86.39
2022-12-27T22:41:54.389Z,86.03
2022-12-27T22:45:30.394Z,86.23
2022-12-27T22:48:49.437Z,86.14
2022-12-27T22:51:58.503Z,85.99
2022-12-27T22:55:30.480Z,86.25
2022-12-27T23:02:05.483Z,86.98
2022-12-27T23:05:20.523Z,87.49
2022-12-27T23:08:30.487Z,87.32
2022-12-27T23:11:50.477Z,87.50
2022-12-27T23:15:10.355Z,87.51
2022-12-27T23:18:25.688Z,87.68
2022-12-27T23:21:41.032Z,87.78
2022-12-27T23:25:32.560Z,87.97
2022-12-27T23:29:02.886Z,87.54
2022-12-27T23:32:09.707Z,87.67
2022-12-27T23:35:24.356Z,87.85
2022-12-27T23:38:38.472Z,88.05
2022-12-27T23:41:47.344Z,88.33
2022-12-27T23:45:31.009Z,88.85
2022-12-27T23:48:45.683Z,89.39
2022-12-27T23:52:00.426Z,88.87
2022-12-27T23:55:12.443Z,89.07
2022-12-27T23:58:27.420Z,89.06
